Time;durP1;ratioP1;P1;durP2;ratioP2;P2;SDS_P1;SDS_P2;PMS_P1;PMS_P2;Temp;Humidity;BMP_temperature;BMP_pressure;BME280_temperature;BME280_humidity;BME280_pressure;Samples;Min_cycle;Max_cycle;Signal;HPM_P1;HPM_P2
2023/04/24 00:00:09;;;;;;;6.57;5.90;;;;;;;9.33;100.00;99973.94;5089915;28;20055;-36
2023/04/24 00:02:37;;;;;;;5.57;5.10;;;;;;;9.34;100.00;99975.56;5090332;28;20028;-35
2023/04/24 00:05:07;;;;;;;6.20;5.60;;;;;;;9.37;100.00;99975.09;5090545;28;20070;-35
2023/04/24 00:07:33;;;;;;;5.65;5.15;;;;;;;9.39;100.00;99975.66;5089893;28;20448;-35
2023/04/24 00:09:58;;;;;;;5.75;5.25;;;;;;;9.39;100.00;99974.84;5090168;28;20119;-36
2023/04/24 00:12:24;;;;;;;5.93;5.43;;;;;;;9.40;100.00;99965.69;5080689;28;20059;-35
2023/04/24 00:14:49;;;;;;;5.60;5.10;;;;;;;9.39;100.00;99966.75;5077178;28;20112;-36
2023/04/24 00:17:15;;;;;;;6.45;5.85;;;;;;;9.40;100.00;99968.38;5077042;28;20025;-35
2023/04/24 00:19:40;;;;;;;6.00;5.50;;;;;;;9.41;100.00;99976.22;5076160;28;20033;-35
2023/04/24 00:22:06;;;;;;;6.77;6.17;;;;;;;9.34;100.00;99964.78;5076251;28;20327;-35
2023/04/24 00:24:31;;;;;;;7.15;6.40;;;;;;;9.36;100.00;99972.63;5075874;28;20404;-35
2023/04/24 00:26:57;;;;;;;7.63;6.35;;;;;;;9.40;100.00;99985.38;5076612;28;20067;-35
2023/04/24 00:29:22;;;;;;;7.40;6.20;;;;;;;9.37;100.00;99982.34;5075773;28;20029;-35
2023/04/24 00:31:48;;;;;;;8.10;7.07;;;;;;;9.36;100.00;99984.22;5076053;28;20039;-35
2023/04/24 00:34:13;;;;;;;7.80;6.67;;;;;;;9.35;100.00;99988.00;5076180;28;20024;-36
2023/04/24 00:36:38;;;;;;;8.83;7.93;;;;;;;9.33;100.00;99984.72;5075900;28;20317;-35
2023/04/24 00:39:04;;;;;;;8.10;7.40;;;;;;;9.26;100.00;99973.25;5075615;28;20523;-35
2023/04/24 00:41:32;;;;;;;9.80;8.90;;;;;;;9.30;100.00;99990.59;5075468;28;20107;-35
2023/04/24 00:43:58;;;;;;;9.95;9.07;;;;;;;9.27;100.00;99993.78;5075496;28;20060;-35
2023/04/24 00:46:23;;;;;;;9.73;8.83;;;;;;;9.19;100.00;99980.69;5075533;28;20465;-35
2023/04/24 00:48:50;;;;;;;9.67;8.77;;;;;;;9.19;100.00;99994.19;5075392;28;20400;-35
2023/04/24 00:51:15;;;;;;;10.57;9.57;;;;;;;9.21;100.00;99997.44;5075574;28;20031;-35
2023/04/24 00:53:41;;;;;;;10.45;9.45;;;;;;;9.22;100.00;99988.28;5075238;28;20032;-35
2023/04/24 00:56:06;;;;;;;10.93;9.27;;;;;;;9.19;100.00;99996.88;5076079;28;20028;-35
2023/04/24 00:58:31;;;;;;;11.70;9.93;;;;;;;9.19;100.00;100003.09;5075469;28;20274;-35
2023/04/24 01:00:58;;;;;;;11.48;10.27;;;;;;;9.14;100.00;99992.22;5076378;28;20075;-36
2023/04/24 01:03:28;;;;;;;11.23;10.05;;;;;;;9.16;100.00;99997.34;5074388;28;20024;-35
2023/04/24 01:05:55;;;;;;;11.55;10.43;;;;;;;9.19;100.00;99996.88;5075552;28;20477;-35
2023/04/24 01:08:24;;;;;;;12.55;11.25;;;;;;;9.13;100.00;99987.88;5075468;28;20028;-35
2023/04/24 01:10:51;;;;;;;13.10;10.65;;;;;;;9.17;100.00;99986.31;5075801;28;20377;-35
2023/04/24 01:13:18;;;;;;;12.13;10.52;;;;;;;9.12;100.00;99983.53;5074837;28;20033;-35
2023/04/24 01:15:44;;;;;;;12.00;10.65;;;;;;;9.21;100.00;99992.06;5075427;28;20028;-35
2023/04/24 01:18:09;;;;;;;13.85;10.85;;;;;;;9.15;100.00;99971.44;5075384;28;20492;-35
2023/04/24 01:20:39;;;;;;;12.87;10.90;;;;;;;9.19;100.00;99988.78;5075279;28;20120;-35
2023/04/24 01:23:06;;;;;;;13.52;11.30;;;;;;;9.08;100.00;99974.31;5074572;28;20103;-36
2023/04/24 01:25:32;;;;;;;13.32;11.95;;;;;;;9.13;100.00;99978.97;5075249;28;20131;-35
2023/04/24 01:27:58;;;;;;;13.05;11.60;;;;;;;9.09;100.00;99984.03;5074622;28;20068;-36
2023/04/24 01:30:24;;;;;;;;;;;;;;;9.14;100.00;99992.22;5076130;28;20374;-36
2023/04/24 01:32:49;;;;;;;11.35;10.27;;;;;;;9.03;100.00;99985.81;5074471;28;19908;-36
2023/04/24 01:35:15;;;;;;;13.25;11.57;;;;;;;9.02;100.00;99989.56;5075082;28;20036;-35
2023/04/24 01:37:40;;;;;;;12.65;11.25;;;;;;;8.95;100.00;99985.38;5074345;28;20028;-36
2023/04/24 01:40:07;;;;;;;12.55;11.38;;;;;;;8.99;100.00;99990.06;5075443;28;20032;-35
2023/04/24 01:42:32;;;;;;;11.88;10.68;;;;;;;8.98;100.00;99983.03;5074532;28;20089;-35
2023/04/24 01:44:58;;;;;;;12.63;11.35;;;;;;;8.92;100.00;99989.38;5075046;28;20032;-35
2023/04/24 01:47:24;;;;;;;;;;;;;;;8.98;100.00;99995.69;5074947;28;20020;-35
2023/04/24 01:49:50;;;;;;;12.90;11.60;;;;;;;8.90;100.00;99991.50;5074170;28;19915;-35
2023/04/24 01:52:17;;;;;;;;;;;;;;;8.95;100.00;99986.19;5075372;28;20031;-35
2023/04/24 01:54:42;;;;;;;15.73;13.48;;;;;;;8.84;100.00;99976.28;5074688;28;19944;-35
2023/04/24 01:57:08;;;;;;;16.45;14.82;;;;;;;8.90;100.00;99988.81;5074629;28;20090;-35
2023/04/24 01:59:36;;;;;;;16.20;14.63;;;;;;;8.89;100.00;99981.78;5074056;28;20027;-35
2023/04/24 02:02:02;;;;;;;16.17;14.55;;;;;;;8.79;100.00;99978.06;5074775;28;20021;-35
2023/04/24 02:04:27;;;;;;;;;;;;;;;8.91;100.00;99990.44;5075405;28;20066;-35
2023/04/24 02:06:52;;;;;;;17.93;16.23;;;;;;;8.82;100.00;99989.19;5074396;28;20052;-35
2023/04/24 02:09:18;;;;;;;20.50;18.30;;;;;;;8.76;100.00;99979.34;5074161;28;20274;-35
2023/04/24 02:11:43;;;;;;;20.43;17.50;;;;;;;8.75;100.00;99983.94;5074354;28;20032;-35
2023/04/24 02:14:08;;;;;;;19.63;17.60;;;;;;;8.78;100.00;99998.78;5073682;28;20028;-35
2023/04/24 02:16:35;;;;;;;20.63;18.70;;;;;;;8.77;100.00;99997.97;5074053;28;20096;-35
2023/04/24 02:19:01;;;;;;;20.40;17.45;;;;;;;8.70;100.00;99988.41;5074427;28;20372;-36
2023/04/24 02:21:27;;;;;;;20.20;18.20;;;;;;;8.75;100.00;99991.22;5073795;28;20032;-35
2023/04/24 02:23:53;;;;;;;19.25;17.33;;;;;;;8.65;100.00;99986.44;5073793;28;20082;-35
2023/04/24 02:26:18;;;;;;;16.70;15.00;;;;;;;8.73;100.00;100001.38;5073838;28;20028;-35
2023/04/24 02:28:44;;;;;;;17.05;15.25;;;;;;;8.64;100.00;99982.09;5073086;28;20039;-35
2023/04/24 02:31:09;;;;;;;17.40;15.73;;;;;;;8.73;100.00;99999.50;5074317;28;20036;-36
2023/04/24 02:33:35;;;;;;;17.53;15.67;;;;;;;8.65;100.00;99986.44;5074284;28;20278;-36
2023/04/24 02:36:01;;;;;;;18.67;15.05;;;;;;;8.64;100.00;99982.09;5073487;28;20100;-35
2023/04/24 02:38:27;;;;;;;16.77;15.05;;;;;;;8.71;100.00;100003.53;5073651;28;20067;-35
2023/04/24 02:40:52;;;;;;;16.83;15.07;;;;;;;8.69;100.00;99989.47;5073865;28;20028;-36
2023/04/24 02:43:17;;;;;;;15.70;14.00;;;;;;;8.47;100.00;99957.78;5073653;28;20103;-35
2023/04/24 02:45:43;;;;;;;15.87;14.13;;;;;;;8.66;100.00;99995.34;5073924;28;20029;-36
2023/04/24 02:48:08;;;;;;;15.97;14.27;;;;;;;8.59;100.00;99987.41;5073643;28;20035;-35
2023/04/24 02:50:33;;;;;;;15.70;14.03;;;;;;;8.51;100.00;99977.78;5074093;28;20282;-35
2023/04/24 02:52:59;;;;;;;16.17;14.50;;;;;;;8.57;100.00;99992.19;5073865;28;20028;-36
2023/04/24 02:55:24;;;;;;;15.52;13.55;;;;;;;8.54;100.00;99972.97;5074064;28;20020;-35
2023/04/24 02:57:50;;;;;;;18.77;14.30;;;;;;;8.56;100.00;99981.66;5073462;28;20020;-35
2023/04/24 03:00:16;;;;;;;16.38;14.27;;;;;;;8.58;100.00;99982.22;5073336;28;20044;-35
2023/04/24 03:02:41;;;;;;;16.60;14.07;;;;;;;8.57;100.00;99985.97;5073514;28;20029;-35
2023/04/24 03:05:07;;;;;;;16.25;14.55;;;;;;;8.55;100.00;99982.72;5074203;28;20035;-35
2023/04/24 03:07:33;;;;;;;15.95;14.35;;;;;;;8.54;100.00;99979.22;5073347;28;20028;-36
2023/04/24 03:09:59;;;;;;;15.88;14.32;;;;;;;8.49;100.00;99982.63;5073376;28;20095;-36
2023/04/24 03:12:24;;;;;;;15.82;14.23;;;;;;;8.52;100.00;99981.31;5073297;28;20086;-36
2023/04/24 03:14:50;;;;;;;15.98;14.27;;;;;;;8.49;100.00;99974.53;5073391;28;20040;-36
2023/04/24 03:17:15;;;;;;;16.13;14.73;;;;;;;8.52;100.00;99984.81;5073034;28;20021;-35
2023/04/24 03:19:40;;;;;;;16.90;14.80;;;;;;;8.41;100.00;99974.91;5073219;28;20255;-36
2023/04/24 03:22:06;;;;;;;15.75;14.25;;;;;;;8.47;100.00;99982.03;5073287;28;20056;-35
2023/04/24 03:24:31;;;;;;;17.02;15.07;;;;;;;8.46;100.00;99987.66;5072959;28;20028;-36
2023/04/24 03:26:57;;;;;;;16.38;14.68;;;;;;;8.49;100.00;99992.53;5073178;28;20058;-36
2023/04/24 03:29:22;;;;;;;15.87;14.17;;;;;;;8.43;100.00;99956.59;5073413;28;20024;-36
2023/04/24 03:31:48;;;;;;;15.57;14.05;;;;;;;8.50;100.00;99988.81;5073485;28;20035;-35
2023/04/24 03:34:13;;;;;;;15.37;13.73;;;;;;;8.49;100.00;99979.91;5073455;28;20048;-35
2023/04/24 03:36:38;;;;;;;15.10;13.57;;;;;;;8.49;100.00;99979.91;5073439;28;20263;-35
2023/04/24 03:39:04;;;;;;;13.67;12.33;;;;;;;8.49;100.00;99979.91;5073380;28;20056;-36
2023/04/24 03:41:30;;;;;;;14.77;13.20;;;;;;;8.47;100.00;99975.81;5073366;28;20340;-35
2023/04/24 03:43:56;;;;;;;13.27;12.07;;;;;;;8.44;100.00;99982.50;5072749;28;20024;-35
2023/04/24 03:46:21;;;;;;;13.55;12.35;;;;;;;8.42;100.00;99979.22;5072863;28;20035;-35
2023/04/24 03:48:46;;;;;;;13.13;11.93;;;;;;;8.39;100.00;99973.47;5077631;28;20028;-35
2023/04/24 03:51:12;;;;;;;13.07;11.93;;;;;;;8.37;100.00;99971.03;5077017;28;20024;-35
2023/04/24 03:53:37;;;;;;;13.37;11.53;;;;;;;8.37;100.00;99968.34;5076768;28;20649;-35
2023/04/24 03:56:02;;;;;;;13.23;11.57;;;;;;;8.45;100.00;99976.06;5076970;28;20051;-35
2023/04/24 03:58:28;;;;;;;12.05;10.95;;;;;;;8.39;100.00;99977.00;5076285;28;20078;-35
2023/04/24 04:00:53;;;;;;;12.30;11.10;;;;;;;8.35;100.00;99967.75;5076868;28;20055;-35
2023/04/24 04:03:19;;;;;;;12.37;11.07;;;;;;;8.40;100.00;99975.97;5076769;28;20059;-35
2023/04/24 04:05:44;;;;;;;13.52;12.02;;;;;;;8.39;100.00;99974.28;5077036;28;20607;-35
2023/04/24 04:08:10;;;;;;;11.50;10.40;;;;;;;8.40;100.00;99969.75;5076421;28;20518;-35
2023/04/24 04:10:35;;;;;;;12.47;11.13;;;;;;;8.36;100.00;99973.94;5076950;28;20029;-35
2023/04/24 04:13:00;;;;;;;14.43;12.33;;;;;;;8.40;100.00;99980.53;5076086;28;20029;-35
2023/04/24 04:15:26;;;;;;;12.83;10.67;;;;;;;8.38;100.00;99971.84;5076885;28;20480;-36
2023/04/24 04:17:51;;;;;;;12.90;11.20;;;;;;;8.36;100.00;99968.56;5076280;28;20020;-35
2023/04/24 04:20:17;;;;;;;12.07;10.80;;;;;;;8.38;100.00;99967.28;5076715;28;20317;-35
2023/04/24 04:22:42;;;;;;;13.65;11.30;;;;;;;8.37;100.00;99975.59;5076678;28;20025;-36
2023/04/24 04:25:08;;;;;;;11.77;10.57;;;;;;;8.37;100.00;99975.59;5076786;28;20028;-35
2023/04/24 04:27:34;;;;;;;11.45;10.25;;;;;;;8.39;100.00;99985.06;5075735;28;20031;-35
2023/04/24 04:30:04;;;;;;;;;;;;;;;8.44;100.00;99985.22;5076539;28;20029;-36
2023/04/24 04:32:35;;;;;;;11.75;10.15;;;;;;;8.33;100.00;99969.00;5075982;28;19909;-35
2023/04/24 04:35:02;;;;;;;11.88;9.98;;;;;;;8.38;100.00;99986.13;5076269;28;20111;-35
2023/04/24 04:37:34;;;;;;;11.20;10.10;;;;;;;8.37;100.00;99981.81;5075854;28;20064;-36
2023/04/24 04:40:00;;;;;;;10.68;9.55;;;;;;;8.36;100.00;99990.94;5076325;28;20107;-35
2023/04/24 04:42:30;;;;;;;11.60;10.35;;;;;;;8.36;100.00;99990.09;5076026;28;20025;-35
2023/04/24 04:44:57;;;;;;;11.68;10.52;;;;;;;8.31;100.00;99985.44;5075446;28;20477;-35
2023/04/24 04:47:23;;;;;;;12.18;10.98;;;;;;;8.32;100.00;99999.72;5075707;28;20056;-35
2023/04/24 04:49:48;;;;;;;11.63;10.50;;;;;;;8.30;100.00;99991.06;5076560;28;20028;-35
2023/04/24 04:52:14;;;;;;;12.17;10.97;;;;;;;8.31;100.00;99998.91;5075641;28;20024;-35
2023/04/24 04:54:39;;;;;;;11.43;9.95;;;;;;;8.31;100.00;100004.28;5075293;28;20266;-35
2023/04/24 04:57:05;;;;;;;11.20;10.20;;;;;;;8.26;100.00;99996.09;5075341;28;20029;-35
2023/04/24 04:59:30;;;;;;;10.55;9.65;;;;;;;8.27;100.00;99998.53;5075357;28;20038;-35
2023/04/24 05:01:56;;;;;;;9.97;9.10;;;;;;;8.23;100.00;100000.06;5076598;28;20067;-35
2023/04/24 05:04:21;;;;;;;10.83;9.90;;;;;;;8.31;100.00;100012.38;5075406;28;20034;-35
2023/04/24 05:06:47;;;;;;;10.77;9.77;;;;;;;8.26;100.00;100001.47;5076210;28;20099;-35
2023/04/24 05:09:12;;;;;;;11.65;9.20;;;;;;;8.27;100.00;100006.63;5075260;28;20035;-35
2023/04/24 05:11:38;;;;;;;9.90;8.88;;;;;;;8.24;100.00;99998.19;5075783;28;20032;-35
2023/04/24 05:14:03;;;;;;;9.37;8.47;;;;;;;8.31;100.00;100006.16;5075208;28;20020;-35
2023/04/24 05:16:28;;;;;;;9.15;8.25;;;;;;;8.10;100.00;99986.03;5075222;28;20465;-35
2023/04/24 05:18:54;;;;;;;8.63;7.70;;;;;;;8.20;100.00;100005.13;5075670;28;20036;-35
2023/04/24 05:21:19;;;;;;;8.88;7.30;;;;;;;8.21;100.00;100015.66;5074706;28;20060;-35
2023/04/24 05:23:45;;;;;;;7.32;6.50;;;;;;;8.28;100.00;100028.97;5074959;28;20036;-35
2023/04/24 05:26:10;;;;;;;7.53;6.80;;;;;;;8.26;100.00;100023.03;5075272;28;20035;-35
2023/04/24 05:28:36;;;;;;;7.57;6.77;;;;;;;8.20;100.00;100015.91;5074631;28;20400;-35
2023/04/24 05:31:02;;;;;;;6.68;6.03;;;;;;;8.27;100.00;100036.25;5074899;28;20804;-35
2023/04/24 05:33:28;;;;;;;5.50;5.00;;;;;;;8.26;100.00;100029.22;5074818;28;20103;-35
2023/04/24 05:35:54;;;;;;;4.63;4.13;;;;;;;8.22;100.00;100025.38;5075325;28;20060;-35
2023/04/24 05:38:19;;;;;;;4.70;4.30;;;;;;;8.14;100.00;100014.94;5074767;28;20108;-36
2023/04/24 05:40:45;;;;;;;5.13;3.35;;;;;;;8.13;100.00;100017.88;5074337;28;20090;-35
2023/04/24 05:43:11;;;;;;;;;;;;;;;8.23;100.00;100028.88;5075559;28;20408;-35
2023/04/24 05:45:36;;;;;;;2.92;2.13;;;;;;;8.18;100.00;100045.75;5075098;28;19912;-35
2023/04/24 05:48:03;;;;;;;2.47;2.07;;;;;;;8.17;100.00;100057.56;5074469;28;20107;-36
2023/04/24 05:50:28;;;;;;;3.22;2.00;;;;;;;8.16;100.00;100065.88;5074724;28;20063;-36
2023/04/24 05:52:53;;;;;;;4.10;1.93;;;;;;;8.15;100.00;100069.63;5074949;28;20059;-35
2023/04/24 05:55:19;;;;;;;4.73;2.03;;;;;;;8.10;100.00;100073.03;5074752;28;20795;-35
2023/04/24 05:57:45;;;;;;;2.55;1.90;;;;;;;8.14;100.00;100089.53;5074362;28;20578;-35
2023/04/24 06:00:12;;;;;;;2.10;1.80;;;;;;;8.03;100.00;100068.81;5074017;28;20514;-35
2023/04/24 06:02:37;;;;;;;;;;;;;;;8.18;100.00;100090.69;5074605;28;20025;-35
2023/04/24 06:05:04;;;;;;;2.67;1.90;;;;;;;8.18;100.00;100099.59;5074309;28;19916;-35
2023/04/24 06:07:30;;;;;;;3.47;2.45;;;;;;;8.18;100.00;100096.09;5074429;28;20103;-35
2023/04/24 06:09:56;;;;;;;3.17;2.13;;;;;;;8.19;100.00;100098.53;5074231;28;20050;-35
2023/04/24 06:12:21;;;;;;;;;;;;;;;8.24;100.00;100106.75;5074175;28;20035;-35
2023/04/24 06:14:47;;;;;;;2.45;2.00;;;;;;;8.22;100.00;100103.47;5074048;28;20007;-35
2023/04/24 06:17:12;;;;;;;4.40;2.70;;;;;;;8.24;100.00;100105.91;5074066;28;20028;-35
2023/04/24 06:19:37;;;;;;;3.63;2.53;;;;;;;8.27;100.00;100117.06;5073749;28;20029;-35
2023/04/24 06:22:03;;;;;;;2.60;2.40;;;;;;;8.30;100.00;100123.06;5074479;28;20024;-36
2023/04/24 06:24:28;;;;;;;3.35;2.40;;;;;;;8.15;100.00;100107.31;5073874;28;20477;-36
2023/04/24 06:26:54;;;;;;;2.95;2.60;;;;;;;8.25;100.00;100129.13;5074128;28;20097;-35
2023/04/24 06:29:19;;;;;;;4.30;3.13;;;;;;;8.28;100.00;100139.41;5074410;28;20449;-35
2023/04/24 06:31:45;;;;;;;3.25;2.70;;;;;;;8.25;100.00;100139.91;5073503;28;20259;-35
2023/04/24 06:34:10;;;;;;;3.37;3.10;;;;;;;8.33;100.00;100162.97;5074629;28;20032;-35
2023/04/24 06:36:35;;;;;;;4.20;3.60;;;;;;;8.33;100.00;100166.47;5073759;28;20120;-35
2023/04/24 06:39:01;;;;;;;4.20;3.47;;;;;;;8.33;100.00;100163.78;5073768;28;20479;-35
2023/04/24 06:41:27;;;;;;;4.10;3.70;;;;;;;8.27;100.00;100148.56;5073895;28;20763;-35
2023/04/24 06:43:52;;;;;;;3.92;3.60;;;;;;;8.35;100.00;100166.28;5073614;28;20127;-35
2023/04/24 06:46:17;;;;;;;3.87;3.40;;;;;;;8.32;100.00;100172.94;5073733;28;20028;-35
2023/04/24 06:48:43;;;;;;;3.17;2.80;;;;;;;8.30;100.00;100177.75;5073664;28;20032;-35
2023/04/24 06:51:09;;;;;;;2.53;2.33;;;;;;;8.21;100.00;100189.91;5073631;28;20406;-35
2023/04/24 06:53:34;;;;;;;4.55;3.15;;;;;;;8.15;100.00;100180.88;5073547;28;20448;-35
2023/04/24 06:56:00;;;;;;;10.65;3.80;;;;;;;8.13;100.00;100196.44;5073826;28;20056;-35
2023/04/24 06:58:25;;;;;;;5.30;3.92;;;;;;;8.08;100.00;100198.19;5073201;28;20036;-35
2023/04/24 07:00:51;;;;;;;6.80;4.68;;;;;;;8.06;100.00;100208.38;5074317;28;20045;-35
2023/04/24 07:03:16;;;;;;;6.00;4.70;;;;;;;8.06;100.00;100222.66;5073211;28;20038;-36
2023/04/24 07:05:42;;;;;;;7.50;4.40;;;;;;;8.02;100.00;100209.88;5074034;28;20368;-36
2023/04/24 07:08:08;;;;;;;7.38;5.10;;;;;;;7.97;100.00;100224.84;5074243;28;20071;-36
2023/04/24 07:10:35;;;;;;;6.13;5.53;;;;;;;7.99;100.00;100232.69;5073414;28;20033;-36
2023/04/24 07:13:01;;;;;;;8.88;6.50;;;;;;;7.98;100.00;100257.97;5073347;28;20423;-37
2023/04/24 07:15:26;;;;;;;7.47;6.63;;;;;;;7.89;100.00;100268.22;5073386;28;20036;-37
2023/04/24 07:17:51;;;;;;;7.67;6.87;;;;;;;7.89;100.00;100278.16;5073685;28;20033;-37
2023/04/24 07:20:17;;;;;;;9.13;6.87;;;;;;;7.86;100.00;100290.22;5074142;28;20153;-37
2023/04/24 07:22:42;;;;;;;8.93;6.77;;;;;;;7.85;100.00;100287.75;5075629;28;20634;-37
2023/04/24 07:25:08;;;;;;;10.60;7.03;;;;;;;7.81;100.00;100302.69;5078200;28;20025;-36
2023/04/24 07:27:35;;;;;;;8.43;6.40;;;;;;;7.80;100.00;100309.13;5076956;28;20028;-37
2023/04/24 07:30:01;;;;;;;10.82;6.40;;;;;;;7.65;100.00;100301.44;5076955;28;20029;-37
2023/04/24 07:32:26;;;;;;;8.55;5.75;;;;;;;7.77;100.00;100323.88;5076842;28;20028;-37
2023/04/24 07:34:52;;;;;;;8.57;6.90;;;;;;;7.75;100.00;100336.72;5077456;28;20033;-37
2023/04/24 07:37:17;;;;;;;8.53;6.47;;;;;;;7.67;100.00;100337.88;5077367;28;20377;-37
2023/04/24 07:39:42;;;;;;;10.23;6.57;;;;;;;7.75;100.00;100347.50;5077515;28;20464;-37
2023/04/24 07:42:08;;;;;;;12.10;7.23;;;;;;;7.74;100.00;100351.25;5077495;28;20266;-37
2023/04/24 07:44:33;;;;;;;11.37;6.37;;;;;;;7.68;100.00;100347.56;5076615;28;20266;-37
2023/04/24 07:46:58;;;;;;;12.87;6.50;;;;;;;7.75;100.00;100367.16;5076898;28;20067;-37
2023/04/24 07:49:24;;;;;;;9.17;6.07;;;;;;;7.75;100.00;100374.41;5076529;28;20036;-36
2023/04/24 07:51:50;;;;;;;9.53;5.97;;;;;;;7.73;100.00;100373.81;5077092;28;20021;-37
2023/04/24 07:54:15;;;;;;;9.95;5.53;;;;;;;7.71;100.00;100389.34;5076759;28;20460;-36
2023/04/24 07:56:42;;;;;;;9.27;4.95;;;;;;;7.69;100.00;100394.97;5076918;28;20056;-36
2023/04/24 07:59:09;;;;;;;12.88;5.32;;;;;;;7.68;100.00;100393.31;5076585;28;20074;-36
2023/04/24 08:01:35;;;;;;;8.57;4.45;;;;;;;7.65;100.00;100406.41;5076888;28;20407;-36
2023/04/24 08:04:00;;;;;;;11.15;4.47;;;;;;;7.60;100.00;100398.16;5076518;28;20036;-36
2023/04/24 08:06:29;;;;;;;13.00;4.73;;;;;;;7.69;100.00;100410.28;5076844;28;20029;-36
2023/04/24 08:08:58;;;;;;;10.57;4.05;;;;;;;7.71;100.00;100416.28;5076106;28;20028;-35
2023/04/24 08:11:25;;;;;;;13.55;4.65;;;;;;;7.65;100.00;100414.47;5076689;28;20033;-35
2023/04/24 08:13:50;;;;;;;10.88;4.15;;;;;;;7.65;100.00;100420.69;5076228;28;20028;-35
2023/04/24 08:16:16;;;;;;;9.50;3.80;;;;;;;7.64;100.00;100432.50;5077175;28;20112;-36
2023/04/24 08:18:41;;;;;;;11.83;3.87;;;;;;;7.71;100.00;100443.19;5076561;28;20103;-35
2023/04/24 08:21:07;;;;;;;13.13;4.47;;;;;;;7.74;100.00;100453.50;5075936;28;20461;-35
2023/04/24 08:23:32;;;;;;;10.85;4.45;;;;;;;7.76;100.00;100459.53;5076532;28;20036;-35
2023/04/24 08:25:58;;;;;;;10.93;4.00;;;;;;;7.76;100.00;100467.59;5077126;28;20024;-35
2023/04/24 08:28:23;;;;;;;12.38;4.53;;;;;;;7.65;100.00;100468.28;5075851;28;20029;-35
2023/04/24 08:30:54;;;;;;;11.77;4.03;;;;;;;7.78;100.00;100478.94;5076389;28;20123;-35
2023/04/24 08:33:19;;;;;;;11.05;3.78;;;;;;;7.73;100.00;100473.41;5075583;28;20032;-35
2023/04/24 08:35:45;;;;;;;11.00;3.88;;;;;;;7.78;100.00;100495.09;5076523;28;20081;-35
2023/04/24 08:38:10;;;;;;;6.73;3.03;;;;;;;7.66;100.00;100470.78;5076218;28;20457;-35
2023/04/24 08:40:36;;;;;;;8.57;3.50;;;;;;;7.81;100.00;100507.28;5076420;28;20028;-35
2023/04/24 08:43:03;;;;;;;;;;;;;;;7.86;100.00;100502.91;5076004;28;20021;-35
2023/04/24 08:45:29;;;;;;;8.93;3.35;;;;;;;7.83;100.00;100503.34;5076148;28;19951;-35
2023/04/24 08:47:54;;;;;;;;;;;;;;;7.90;100.00;100509.47;5075952;28;20051;-35
2023/04/24 08:50:20;;;;;;;10.88;4.13;;;;;;;7.86;100.00;100507.47;5075703;28;19908;-35
2023/04/24 08:52:47;;;;;;;8.95;3.00;;;;;;;7.89;100.00;100523.97;5075651;28;20030;-35
2023/04/24 08:55:12;;;;;;;12.07;3.72;;;;;;;7.94;100.00;100524.13;5076187;28;20036;-35
2023/04/24 08:57:40;;;;;;;10.20;3.65;;;;;;;7.99;100.00;100524.28;5075546;28;20086;-35
2023/04/24 09:00:06;;;;;;;11.10;3.47;;;;;;;8.03;100.00;100523.88;5075626;28;20457;-35
2023/04/24 09:02:34;;;;;;;10.55;3.83;;;;;;;8.07;100.00;100530.47;5076208;28;20078;-35
2023/04/24 09:05:00;;;;;;;9.65;3.33;;;;;;;8.03;100.00;100532.75;5076004;28;20048;-35
2023/04/24 09:07:28;;;;;;;13.10;4.15;;;;;;;8.07;100.00;100547.44;5075384;28;20030;-35
2023/04/24 09:09:54;;;;;;;9.60;3.25;;;;;;;8.05;100.00;100546.00;5075659;28;20376;-35
2023/04/24 09:12:20;;;;;;;12.10;3.80;;;;;;;8.08;100.00;100556.34;5075772;28;20033;-35
2023/04/24 09:14:46;;;;;;;10.00;3.75;;;;;;;8.06;100.00;100550.38;5075285;28;20024;-36
2023/04/24 09:17:12;;;;;;;8.48;2.80;;;;;;;8.02;100.00;100549.16;5075269;28;20025;-35
2023/04/24 09:19:37;;;;;;;9.75;2.85;;;;;;;8.07;100.00;100547.44;5075173;28;20025;-35
2023/04/24 09:22:07;;;;;;;9.03;2.43;;;;;;;8.12;100.00;100560.25;5075606;28;20349;-35
2023/04/24 09:24:34;;;;;;;11.57;2.72;;;;;;;8.16;100.00;100553.38;5074974;28;20028;-35
2023/04/24 09:27:03;;;;;;;9.70;2.47;;;;;;;8.22;100.00;100566.75;5075835;28;20028;-35
2023/04/24 09:29:29;;;;;;;7.18;2.15;;;;;;;8.18;100.00;100551.25;5075141;28;20021;-35
2023/04/24 09:31:54;;;;;;;7.10;2.28;;;;;;;8.44;100.00;100580.69;5074919;28;20051;-35
2023/04/24 09:34:24;;;;;;;10.20;2.60;;;;;;;8.55;100.00;100591.75;5075372;28;20044;-35
2023/04/24 09:36:50;;;;;;;5.80;1.95;;;;;;;8.60;100.00;100597.31;5075111;28;20611;-35
2023/04/24 09:39:16;;;;;;;;;;;;;;;8.68;100.00;100597.81;5075159;28;20059;-35
2023/04/24 09:41:51;;;;;;;6.40;2.13;;;;;;;8.51;100.00;100594.06;5074904;28;19955;-36
2023/04/24 09:44:19;;;;;;;5.95;2.15;;;;;;;8.47;100.00;100607.16;5074445;28;20368;-36
2023/04/24 09:46:50;;;;;;;8.63;2.40;;;;;;;8.31;100.00;100609.59;5075699;28;20033;-36
2023/04/24 09:49:17;;;;;;;7.40;2.13;;;;;;;8.32;100.00;100622.00;5074857;28;20380;-35
2023/04/24 09:51:43;;;;;;;6.70;1.92;;;;;;;8.26;100.00;100631.81;5075338;28;20031;-35
2023/04/24 09:54:23;;;;;;;6.15;2.38;;;;;;;8.22;100.00;100630.59;5074163;28;20111;-35
2023/04/24 09:56:50;;;;;;;8.10;2.20;;;;;;;8.17;100.00;100635.81;5075281;28;20027;-35
2023/04/24 09:59:17;;;;;;;6.53;2.30;;;;;;;8.16;100.00;100640.38;5074315;28;20114;-35
2023/04/24 10:01:48;;;;;;;9.40;2.55;;;;;;;8.12;100.00;100638.34;5074790;28;20060;-35
2023/04/24 10:04:27;;;;;;;7.68;2.25;;;;;;;8.14;100.00;100644.31;5074569;28;20384;-35
2023/04/24 10:06:54;;;;;;;7.93;2.40;;;;;;;8.12;100.00;100641.03;5074277;28;20037;-35
2023/04/24 10:09:26;;;;;;;4.13;1.70;;;;;;;8.22;100.00;100652.13;5074456;28;20030;-35
2023/04/24 10:11:53;;;;;;;5.85;1.60;;;;;;;8.32;100.00;100663.25;5074992;28;20039;-35
2023/04/24 10:14:21;;;;;;;9.23;2.80;;;;;;;8.40;100.00;100663.00;5074098;28;20350;-36
2023/04/24 10:16:47;;;;;;;8.57;2.05;;;;;;;8.50;100.00;100659.81;5074352;28;20028;-36
2023/04/24 10:19:15;;;;;;;5.97;1.60;;;;;;;8.47;100.00;100642.19;5073961;28;20028;-36
2023/04/24 10:21:42;;;;;;;6.68;2.22;;;;;;;8.62;100.00;100657.19;5074193;28;20040;-36
2023/04/24 10:24:12;;;;;;;6.50;2.08;;;;;;;8.59;100.00;100663.03;5074158;28;20031;-36
2023/04/24 10:26:39;;;;;;;2.92;1.30;;;;;;;8.59;100.00;100665.72;5074531;28;20482;-36
2023/04/24 10:29:09;;;;;;;4.97;1.70;;;;;;;8.56;100.00;100660.78;5074111;28;20028;-36
2023/04/24 10:31:36;;;;;;;4.25;1.60;;;;;;;8.56;100.00;100674.25;5073824;28;20115;-36
2023/04/24 10:34:02;;;;;;;5.38;1.40;;;;;;;8.59;100.00;100680.03;5074061;28;20035;-36
2023/04/24 10:36:32;;;;;;;4.45;1.40;;;;;;;8.48;100.00;100673.47;5073800;28;20032;-36
2023/04/24 10:38:59;;;;;;;3.80;1.10;;;;;;;8.55;100.00;100686.09;5073685;28;20384;-36
2023/04/24 10:41:26;;;;;;;4.20;1.10;;;;;;;8.48;100.00;100688.84;5074460;28;20024;-36
2023/04/24 10:44:12;;;;;;;2.83;1.05;;;;;;;8.48;100.00;100700.44;5073600;28;20024;-36
2023/04/24 10:46:39;;;;;;;3.92;1.20;;;;;;;8.42;100.00;100689.72;5074226;28;20095;-36
2023/04/24 10:49:08;;;;;;;5.28;1.20;;;;;;;8.54;100.00;100706.84;5073290;28;20038;-36
2023/04/24 10:51:47;;;;;;;3.35;1.33;;;;;;;8.62;100.00;100711.09;5074101;28;20033;-36
2023/04/24 10:54:36;;;;;;;2.47;1.00;;;;;;;8.66;100.00;100715.00;5073525;28;20074;-36
2023/04/24 10:57:19;;;;;;;3.78;1.27;;;;;;;8.68;100.00;100715.59;5074178;28;20027;-36
2023/04/24 10:59:46;;;;;;;4.25;1.10;;;;;;;8.66;100.00;100713.13;5073101;28;20456;-36
2023/04/24 11:02:15;;;;;;;3.70;1.13;;;;;;;8.65;100.00;100716.88;5074073;28;20028;-36
2023/04/24 11:04:40;;;;;;;2.88;1.10;;;;;;;8.64;100.00;100719.81;5073468;28;20020;-36
2023/04/24 11:07:06;;;;;;;7.07;1.27;;;;;;;8.64;100.00;100725.22;5073749;28;20039;-36
2023/04/24 11:09:32;;;;;;;4.18;1.02;;;;;;;8.60;100.00;100724.81;5073981;28;20024;-36
2023/04/24 11:12:07;;;;;;;4.15;1.15;;;;;;;8.48;100.00;100710.38;5074288;28;20033;-36
2023/04/24 11:14:57;;;;;;;3.65;0.85;;;;;;;8.59;100.00;100719.63;5073618;28;20033;-36
2023/04/24 11:17:30;;;;;;;3.92;1.00;;;;;;;8.63;100.00;100734.31;5073657;28;20120;-36
2023/04/24 11:20:03;;;;;;;2.38;0.80;;;;;;;8.62;100.00;100716.50;5073170;28;20352;-36